SYN001 EBBR-EGKK
Flight info
| Callsign | SYN001 |
|---|---|
| Flight time | 0h 48m |
| Altitude | 28000 |
| Route | DENUT L610 TEBRA |
| Aircraft | BCS3/M-SBDE2E3GIRWXY/LB1 |
Departure
| Time | 2026-05-07 19:17 |
|---|---|
| Airport | Brussels Airport (EBBR) |
Arrival
| Time | 2026-05-07 20:05 |
|---|---|
| Airport | London Gatwick Airport (EGKK) |
| Time | Latitude | Longitude | Altitude | Speed | Heading |
|---|---|---|---|---|---|
| 2026-05-07 18:47 | 50.90467 | 4.48785 | 120 ft | 0 kts | 155° |
| 2026-05-07 19:05 | 50.90469 | 4.48784 | 123 ft | 3 kts | 155° |
| 2026-05-07 19:05 | 50.90487 | 4.48771 | 118 ft | 3 kts | 155° |
| 2026-05-07 19:06 | 50.90503 | 4.48752 | 117 ft | 3 kts | 135° |
| 2026-05-07 19:06 | 50.90527 | 4.48704 | 116 ft | 3 kts | 100° |
| 2026-05-07 19:06 | 50.90527 | 4.48675 | 116 ft | 3 kts | 70° |
| 2026-05-07 19:07 | 50.90526 | 4.48668 | 116 ft | 0 kts | 68° |
| 2026-05-07 19:08 | 50.90526 | 4.48669 | 120 ft | 0 kts | 68° |
| 2026-05-07 19:09 | 50.90531 | 4.48689 | 116 ft | 4 kts | 68° |
| 2026-05-07 19:09 | 50.90549 | 4.48750 | 118 ft | 8 kts | 63° |
| 2026-05-07 19:09 | 50.90579 | 4.48844 | 117 ft | 11 kts | 63° |
| 2026-05-07 19:10 | 50.90613 | 4.48954 | 118 ft | 12 kts | 69° |
| 2026-05-07 19:10 | 50.90654 | 4.49081 | 116 ft | 14 kts | 42° |
| 2026-05-07 19:10 | 50.90745 | 4.49137 | 114 ft | 12 kts | 52° |
| 2026-05-07 19:10 | 50.90777 | 4.49257 | 115 ft | 13 kts | 66° |
| 2026-05-07 19:11 | 50.90826 | 4.49431 | 115 ft | 24 kts | 64° |
| 2026-05-07 19:11 | 50.90883 | 4.49629 | 114 ft | 19 kts | 65° |
| 2026-05-07 19:11 | 50.90943 | 4.49807 | 113 ft | 12 kts | 47° |
| 2026-05-07 19:11 | 50.90956 | 4.49828 | 112 ft | 0 kts | 43° |
| 2026-05-07 19:12 | 50.90959 | 4.49832 | 112 ft | 2 kts | 43° |
| 2026-05-07 19:12 | 50.91008 | 4.49888 | 109 ft | 17 kts | 29° |
| 2026-05-07 19:12 | 50.91040 | 4.49912 | 108 ft | 0 kts | 24° |
| 2026-05-07 19:13 | 50.91042 | 4.49914 | 108 ft | 0 kts | 24° |
| 2026-05-07 19:13 | 50.91044 | 4.49916 | 108 ft | 0 kts | 24° |
| 2026-05-07 19:13 | 50.91045 | 4.49916 | 108 ft | 0 kts | 24° |
| 2026-05-07 19:13 | 50.91046 | 4.49917 | 108 ft | 0 kts | 24° |
| 2026-05-07 19:14 | 50.91047 | 4.49917 | 108 ft | 0 kts | 24° |
| 2026-05-07 19:14 | 50.91047 | 4.49918 | 108 ft | 0 kts | 24° |
| 2026-05-07 19:15 | 50.91048 | 4.49918 | 108 ft | 0 kts | 24° |
| 2026-05-07 19:15 | 50.91050 | 4.49919 | 107 ft | 2 kts | 24° |
| 2026-05-07 19:15 | 50.91102 | 4.49939 | 106 ft | 12 kts | 352° |
| 2026-05-07 19:15 | 50.91124 | 4.49836 | 108 ft | 7 kts | 248° |
| 2026-05-07 19:16 | 50.91124 | 4.49834 | 108 ft | 0 kts | 248° |
| 2026-05-07 19:16 | 50.91123 | 4.49833 | 108 ft | 1 kts | 248° |
| 2026-05-07 19:16 | 50.91070 | 4.49640 | 110 ft | 52 kts | 245° |
| 2026-05-07 19:17 | 50.90815 | 4.48771 | 116 ft | 121 kts | 245° |
| 2026-05-07 19:17 | 50.90399 | 4.47330 | 475 ft | 149 kts | 245° |
| 2026-05-07 19:17 | 50.89972 | 4.45770 | 1231 ft | 158 kts | 257° |
| 2026-05-07 19:17 | 50.90126 | 4.44079 | 2101 ft | 158 kts | 296° |
| 2026-05-07 19:18 | 50.90631 | 4.42528 | 2972 ft | 159 kts | 299° |
| 2026-05-07 19:18 | 50.91180 | 4.40898 | 3737 ft | 177 kts | 294° |
| 2026-05-07 19:18 | 50.91498 | 4.38926 | 4595 ft | 192 kts | 279° |
| 2026-05-07 19:18 | 50.91701 | 4.36746 | 5457 ft | 207 kts | 278° |
| 2026-05-07 19:19 | 50.91917 | 4.34402 | 6370 ft | 222 kts | 277° |
| 2026-05-07 19:19 | 50.92152 | 4.31855 | 6997 ft | 250 kts | 277° |
| 2026-05-07 19:19 | 50.92551 | 4.28983 | 7107 ft | 280 kts | 292° |
| 2026-05-07 19:19 | 50.93550 | 4.26422 | 7106 ft | 274 kts | 306° |
| 2026-05-07 19:20 | 50.94727 | 4.24030 | 7099 ft | 276 kts | 308° |
| 2026-05-07 19:20 | 50.95924 | 4.21650 | 7077 ft | 276 kts | 308° |
| 2026-05-07 19:20 | 50.97120 | 4.19271 | 7074 ft | 276 kts | 308° |
| 2026-05-07 19:20 | 50.98314 | 4.16891 | 7079 ft | 276 kts | 308° |
| 2026-05-07 19:21 | 50.99548 | 4.14427 | 7837 ft | 282 kts | 308° |
| 2026-05-07 19:21 | 51.00755 | 4.12013 | 9148 ft | 280 kts | 307° |
| 2026-05-07 19:21 | 51.01971 | 4.09578 | 10151 ft | 283 kts | 307° |
| 2026-05-07 19:21 | 51.03220 | 4.07070 | 10741 ft | 298 kts | 307° |
| 2026-05-07 19:22 | 51.04523 | 4.04452 | 11198 ft | 314 kts | 307° |
| 2026-05-07 19:22 | 51.05915 | 4.01652 | 11863 ft | 321 kts | 307° |
| 2026-05-07 19:22 | 51.07308 | 3.98848 | 12594 ft | 325 kts | 307° |
| 2026-05-07 19:22 | 51.08718 | 3.96006 | 13348 ft | 330 kts | 307° |
| 2026-05-07 19:23 | 51.10125 | 3.93163 | 14085 ft | 333 kts | 307° |
| 2026-05-07 19:23 | 51.11564 | 3.90257 | 14812 ft | 335 kts | 307° |
| 2026-05-07 19:23 | 51.13016 | 3.87322 | 15508 ft | 338 kts | 307° |
| 2026-05-07 19:23 | 51.14479 | 3.84358 | 16195 ft | 341 kts | 307° |
| 2026-05-07 19:24 | 51.15454 | 3.82381 | 16679 ft | 343 kts | 307° |
| 2026-05-07 19:24 | 51.16937 | 3.79374 | 17369 ft | 347 kts | 307° |
| 2026-05-07 19:24 | 51.18433 | 3.76334 | 18098 ft | 350 kts | 307° |
| 2026-05-07 19:24 | 51.19944 | 3.73261 | 18758 ft | 353 kts | 307° |
| 2026-05-07 19:25 | 51.21462 | 3.70170 | 19387 ft | 356 kts | 306° |
| 2026-05-07 19:25 | 51.22944 | 3.66985 | 19969 ft | 358 kts | 298° |
| 2026-05-07 19:25 | 51.23844 | 3.63293 | 20605 ft | 357 kts | 284° |
| 2026-05-07 19:25 | 51.24432 | 3.59474 | 21180 ft | 359 kts | 281° |
| 2026-05-07 19:26 | 51.24967 | 3.55563 | 21778 ft | 362 kts | 281° |
| 2026-05-07 19:26 | 51.25496 | 3.51612 | 22351 ft | 365 kts | 281° |
| 2026-05-07 19:26 | 51.26024 | 3.47643 | 22943 ft | 367 kts | 281° |
| 2026-05-07 19:26 | 51.26553 | 3.43645 | 23504 ft | 370 kts | 281° |
| 2026-05-07 19:27 | 51.27087 | 3.39600 | 23953 ft | 374 kts | 280° |
| 2026-05-07 19:27 | 51.27623 | 3.35464 | 24086 ft | 385 kts | 280° |
| 2026-05-07 19:27 | 51.28158 | 3.31317 | 24085 ft | 375 kts | 280° |
| 2026-05-07 19:27 | 51.28677 | 3.27290 | 24080 ft | 368 kts | 280° |
| 2026-05-07 19:28 | 51.29193 | 3.23255 | 24084 ft | 374 kts | 280° |
| 2026-05-07 19:28 | 51.29717 | 3.19156 | 24077 ft | 375 kts | 280° |
| 2026-05-07 19:28 | 51.30234 | 3.15097 | 24078 ft | 370 kts | 280° |
| 2026-05-07 19:28 | 51.30747 | 3.11053 | 24079 ft | 373 kts | 280° |
| 2026-05-07 19:29 | 51.31263 | 3.06976 | 24077 ft | 374 kts | 280° |
| 2026-05-07 19:29 | 51.31777 | 3.02913 | 24080 ft | 372 kts | 280° |
| 2026-05-07 19:29 | 51.32287 | 2.98859 | 24076 ft | 373 kts | 280° |
| 2026-05-07 19:29 | 51.32791 | 2.94846 | 24077 ft | 373 kts | 280° |
| 2026-05-07 19:30 | 51.33301 | 2.90770 | 24079 ft | 372 kts | 280° |
| 2026-05-07 19:30 | 51.33808 | 2.86702 | 24074 ft | 373 kts | 280° |
| 2026-05-07 19:30 | 51.34314 | 2.82635 | 24074 ft | 373 kts | 280° |
| 2026-05-07 19:30 | 51.34818 | 2.78572 | 24080 ft | 372 kts | 280° |
| 2026-05-07 19:31 | 51.35322 | 2.74498 | 24077 ft | 373 kts | 280° |
| 2026-05-07 19:31 | 51.35825 | 2.70433 | 24074 ft | 372 kts | 280° |
| 2026-05-07 19:31 | 51.36327 | 2.66369 | 24079 ft | 373 kts | 280° |
| 2026-05-07 19:31 | 51.36828 | 2.62302 | 24078 ft | 372 kts | 280° |
| 2026-05-07 19:32 | 51.37328 | 2.58226 | 24075 ft | 373 kts | 280° |
| 2026-05-07 19:32 | 51.37826 | 2.54160 | 24074 ft | 372 kts | 280° |
| 2026-05-07 19:32 | 51.38324 | 2.50081 | 24075 ft | 372 kts | 280° |
| 2026-05-07 19:32 | 51.38813 | 2.46063 | 24081 ft | 373 kts | 279° |
| 2026-05-07 19:33 | 51.39314 | 2.41930 | 24079 ft | 372 kts | 279° |
| 2026-05-07 19:33 | 51.39805 | 2.37862 | 24080 ft | 372 kts | 279° |
| 2026-05-07 19:33 | 51.40296 | 2.33793 | 24019 ft | 374 kts | 279° |
| 2026-05-07 19:33 | 51.40786 | 2.29711 | 23568 ft | 378 kts | 279° |
| 2026-05-07 19:34 | 51.41280 | 2.25596 | 23038 ft | 375 kts | 279° |
| 2026-05-07 19:34 | 51.41778 | 2.21510 | 22604 ft | 370 kts | 280° |
| 2026-05-07 19:34 | 51.42270 | 2.17501 | 22196 ft | 364 kts | 280° |
| 2026-05-07 19:34 | 51.42754 | 2.13530 | 21805 ft | 362 kts | 280° |
| 2026-05-07 19:35 | 51.43236 | 2.09570 | 21417 ft | 362 kts | 280° |
| 2026-05-07 19:35 | 51.43715 | 2.05621 | 21016 ft | 359 kts | 280° |
| 2026-05-07 19:35 | 51.44189 | 2.01705 | 20629 ft | 358 kts | 280° |
| 2026-05-07 19:35 | 51.44657 | 1.97789 | 20236 ft | 357 kts | 279° |
| 2026-05-07 19:36 | 51.45114 | 1.93893 | 19849 ft | 355 kts | 279° |
| 2026-05-07 19:36 | 51.45567 | 1.90010 | 19462 ft | 354 kts | 279° |
| 2026-05-07 19:36 | 51.46017 | 1.86148 | 19077 ft | 352 kts | 279° |
| 2026-05-07 19:36 | 51.46461 | 1.82338 | 18701 ft | 351 kts | 279° |
| 2026-05-07 19:37 | 51.46908 | 1.78496 | 18309 ft | 349 kts | 279° |
| 2026-05-07 19:37 | 51.47351 | 1.74678 | 17884 ft | 347 kts | 279° |
| 2026-05-07 19:37 | 51.47790 | 1.70883 | 17489 ft | 345 kts | 279° |
| 2026-05-07 19:37 | 51.48225 | 1.67103 | 17115 ft | 344 kts | 279° |
| 2026-05-07 19:38 | 51.48616 | 1.63319 | 16721 ft | 342 kts | 272° |
| 2026-05-07 19:38 | 51.48345 | 1.59561 | 16358 ft | 338 kts | 255° |
| 2026-05-07 19:38 | 51.47648 | 1.55973 | 15986 ft | 336 kts | 250° |
| 2026-05-07 19:38 | 51.46866 | 1.52441 | 15617 ft | 335 kts | 249° |
| 2026-05-07 19:39 | 51.46079 | 1.48987 | 15256 ft | 333 kts | 249° |
| 2026-05-07 19:39 | 51.45279 | 1.45505 | 14891 ft | 332 kts | 249° |
| 2026-05-07 19:39 | 51.44482 | 1.42039 | 14533 ft | 330 kts | 249° |
| 2026-05-07 19:39 | 51.43549 | 1.38709 | 14183 ft | 327 kts | 235° |
| 2026-05-07 19:40 | 51.42004 | 1.36070 | 13966 ft | 324 kts | 220° |
| 2026-05-07 19:40 | 51.40245 | 1.33796 | 13786 ft | 329 kts | 217° |
| 2026-05-07 19:40 | 51.38385 | 1.31540 | 14038 ft | 340 kts | 216° |
| 2026-05-07 19:40 | 51.36516 | 1.29313 | 14076 ft | 327 kts | 216° |
| 2026-05-07 19:41 | 51.34724 | 1.27185 | 14033 ft | 327 kts | 216° |
| 2026-05-07 19:41 | 51.32892 | 1.25014 | 13979 ft | 326 kts | 216° |
| 2026-05-07 19:41 | 51.31079 | 1.22870 | 13914 ft | 325 kts | 216° |
| 2026-05-07 19:41 | 51.29252 | 1.20712 | 13841 ft | 326 kts | 216° |
| 2026-05-07 19:42 | 51.27430 | 1.18563 | 13789 ft | 325 kts | 216° |
| 2026-05-07 19:42 | 51.25608 | 1.16417 | 13729 ft | 325 kts | 216° |
| 2026-05-07 19:42 | 51.23787 | 1.14277 | 13665 ft | 325 kts | 216° |
| 2026-05-07 19:42 | 51.21968 | 1.12139 | 13606 ft | 324 kts | 216° |
| 2026-05-07 19:43 | 51.20153 | 1.10008 | 13543 ft | 324 kts | 216° |
| 2026-05-07 19:43 | 51.18335 | 1.07878 | 13481 ft | 324 kts | 216° |
| 2026-05-07 19:43 | 51.16498 | 1.05726 | 13813 ft | 332 kts | 216° |
| 2026-05-07 19:43 | 51.14617 | 1.03526 | 13990 ft | 331 kts | 216° |
| 2026-05-07 19:44 | 51.12818 | 1.01423 | 13550 ft | 324 kts | 216° |
| 2026-05-07 19:44 | 51.11007 | 0.99310 | 12960 ft | 320 kts | 216° |
| 2026-05-07 19:44 | 51.09211 | 0.97216 | 12357 ft | 318 kts | 216° |
| 2026-05-07 19:44 | 51.07432 | 0.95143 | 11832 ft | 313 kts | 216° |
| 2026-05-07 19:45 | 51.05902 | 0.92837 | 11647 ft | 298 kts | 234° |
| 2026-05-07 19:45 | 51.04879 | 0.90057 | 11434 ft | 286 kts | 242° |
| 2026-05-07 19:45 | 51.04001 | 0.87274 | 10990 ft | 284 kts | 243° |
| 2026-05-07 19:45 | 51.03146 | 0.84446 | 10534 ft | 283 kts | 244° |
| 2026-05-07 19:46 | 51.02303 | 0.81639 | 10096 ft | 281 kts | 244° |
| 2026-05-07 19:46 | 51.01466 | 0.78848 | 9629 ft | 278 kts | 244° |
| 2026-05-07 19:46 | 51.00636 | 0.76080 | 9120 ft | 277 kts | 244° |
| 2026-05-07 19:46 | 50.99813 | 0.73335 | 8637 ft | 275 kts | 244° |
| 2026-05-07 19:47 | 50.98990 | 0.70595 | 8201 ft | 273 kts | 244° |
| 2026-05-07 19:47 | 50.98181 | 0.67904 | 8069 ft | 270 kts | 244° |
| 2026-05-07 19:47 | 50.97364 | 0.65189 | 8066 ft | 274 kts | 244° |
| 2026-05-07 19:47 | 50.96541 | 0.62458 | 8068 ft | 274 kts | 244° |
| 2026-05-07 19:48 | 50.95718 | 0.59733 | 8073 ft | 274 kts | 244° |
| 2026-05-07 19:48 | 50.94907 | 0.57046 | 8072 ft | 274 kts | 244° |
| 2026-05-07 19:48 | 50.94082 | 0.54318 | 7971 ft | 274 kts | 244° |
| 2026-05-07 19:48 | 50.93260 | 0.51600 | 7973 ft | 273 kts | 244° |
| 2026-05-07 19:49 | 50.92435 | 0.48876 | 7977 ft | 274 kts | 244° |
| 2026-05-07 19:49 | 50.91680 | 0.46116 | 7971 ft | 274 kts | 255° |
| 2026-05-07 19:49 | 50.91622 | 0.43111 | 7993 ft | 275 kts | 278° |
| 2026-05-07 19:49 | 50.92042 | 0.40142 | 7987 ft | 276 kts | 284° |
| 2026-05-07 19:50 | 50.92553 | 0.37209 | 7978 ft | 276 kts | 285° |
| 2026-05-07 19:50 | 50.93084 | 0.34292 | 7974 ft | 276 kts | 285° |
| 2026-05-07 19:50 | 50.93616 | 0.31370 | 7976 ft | 276 kts | 285° |
| 2026-05-07 19:50 | 50.94149 | 0.28452 | 7974 ft | 275 kts | 285° |
| 2026-05-07 19:51 | 50.94680 | 0.25537 | 7976 ft | 274 kts | 285° |
| 2026-05-07 19:51 | 50.95194 | 0.22724 | 7963 ft | 256 kts | 285° |
| 2026-05-07 19:51 | 50.95676 | 0.20090 | 7977 ft | 243 kts | 285° |
| 2026-05-07 19:51 | 50.96147 | 0.17519 | 7989 ft | 243 kts | 285° |
| 2026-05-07 19:52 | 50.96618 | 0.14950 | 7992 ft | 242 kts | 285° |
| 2026-05-07 19:52 | 50.97091 | 0.12376 | 8072 ft | 242 kts | 285° |
| 2026-05-07 19:52 | 50.97562 | 0.09815 | 8070 ft | 242 kts | 285° |
| 2026-05-07 19:52 | 50.98034 | 0.07246 | 8070 ft | 242 kts | 285° |
| 2026-05-07 19:53 | 50.98506 | 0.04681 | 8070 ft | 242 kts | 285° |
| 2026-05-07 19:53 | 50.98978 | 0.02113 | 8072 ft | 242 kts | 285° |
| 2026-05-07 19:53 | 50.99450 | -0.00453 | 8073 ft | 242 kts | 285° |
| 2026-05-07 19:53 | 50.99920 | -0.03016 | 8072 ft | 242 kts | 285° |
| 2026-05-07 19:54 | 51.00231 | -0.05643 | 8081 ft | 246 kts | 271° |
| 2026-05-07 19:54 | 51.00270 | -0.08319 | 7959 ft | 239 kts | 270° |
| 2026-05-07 19:54 | 51.00296 | -0.10939 | 7645 ft | 239 kts | 270° |
| 2026-05-07 19:54 | 51.00320 | -0.13586 | 7326 ft | 240 kts | 270° |
| 2026-05-07 19:55 | 51.00345 | -0.16224 | 7115 ft | 237 kts | 270° |
| 2026-05-07 19:55 | 51.00367 | -0.18838 | 7015 ft | 235 kts | 270° |
| 2026-05-07 19:55 | 51.00387 | -0.21470 | 6631 ft | 240 kts | 270° |
| 2026-05-07 19:55 | 51.00405 | -0.24118 | 6298 ft | 240 kts | 270° |
| 2026-05-07 19:56 | 51.00422 | -0.26767 | 6001 ft | 239 kts | 270° |
| 2026-05-07 19:56 | 51.00437 | -0.29414 | 5681 ft | 240 kts | 270° |
| 2026-05-07 19:56 | 51.00451 | -0.32071 | 5363 ft | 240 kts | 270° |
| 2026-05-07 19:56 | 51.00464 | -0.34715 | 5044 ft | 240 kts | 270° |
| 2026-05-07 19:57 | 51.00478 | -0.37321 | 4765 ft | 238 kts | 270° |
| 2026-05-07 19:57 | 51.00493 | -0.39953 | 4448 ft | 239 kts | 270° |
| 2026-05-07 19:57 | 51.00508 | -0.42585 | 4148 ft | 238 kts | 270° |
| 2026-05-07 19:57 | 51.00525 | -0.45208 | 3848 ft | 237 kts | 270° |
| 2026-05-07 19:58 | 51.00544 | -0.47828 | 3539 ft | 237 kts | 270° |
| 2026-05-07 19:58 | 51.00563 | -0.50436 | 3256 ft | 236 kts | 270° |
| 2026-05-07 19:58 | 51.00582 | -0.53044 | 3014 ft | 234 kts | 270° |
| 2026-05-07 19:58 | 51.00636 | -0.55614 | 2962 ft | 234 kts | 279° |
| 2026-05-07 19:59 | 51.01365 | -0.57892 | 2981 ft | 235 kts | 316° |
| 2026-05-07 19:59 | 51.02773 | -0.59090 | 2997 ft | 231 kts | 348° |
| 2026-05-07 19:59 | 51.04346 | -0.58981 | 2996 ft | 228 kts | 23° |
| 2026-05-07 19:59 | 51.05581 | -0.57488 | 3005 ft | 223 kts | 49° |
| 2026-05-07 20:00 | 51.06605 | -0.55647 | 2990 ft | 217 kts | 50° |
| 2026-05-07 20:00 | 51.07567 | -0.53904 | 2994 ft | 201 kts | 50° |
| 2026-05-07 20:00 | 51.08459 | -0.52297 | 2980 ft | 186 kts | 50° |
| 2026-05-07 20:00 | 51.09312 | -0.50764 | 2998 ft | 186 kts | 50° |
| 2026-05-07 20:01 | 51.10082 | -0.49180 | 2995 ft | 181 kts | 62° |
| 2026-05-07 20:01 | 51.10616 | -0.47365 | 2996 ft | 181 kts | 70° |
| 2026-05-07 20:01 | 51.11037 | -0.45473 | 2997 ft | 181 kts | 73° |
| 2026-05-07 20:01 | 51.11392 | -0.43554 | 3001 ft | 181 kts | 76° |
| 2026-05-07 20:02 | 51.11711 | -0.41603 | 2938 ft | 183 kts | 77° |
| 2026-05-07 20:02 | 51.12007 | -0.39634 | 2684 ft | 182 kts | 78° |
| 2026-05-07 20:02 | 51.12289 | -0.37673 | 2436 ft | 181 kts | 78° |
| 2026-05-07 20:02 | 51.12557 | -0.35754 | 2189 ft | 174 kts | 79° |
| 2026-05-07 20:03 | 51.12784 | -0.33900 | 1943 ft | 167 kts | 80° |
| 2026-05-07 20:03 | 51.13019 | -0.32128 | 1714 ft | 161 kts | 79° |
| 2026-05-07 20:03 | 51.13259 | -0.30394 | 1492 ft | 160 kts | 79° |
| 2026-05-07 20:03 | 51.13494 | -0.28683 | 1264 ft | 156 kts | 79° |
| 2026-05-07 20:04 | 51.13720 | -0.27023 | 1034 ft | 149 kts | 79° |
| 2026-05-07 20:04 | 51.13931 | -0.25486 | 845 ft | 138 kts | 78° |
| 2026-05-07 20:04 | 51.14129 | -0.24043 | 657 ft | 131 kts | 78° |
| 2026-05-07 20:04 | 51.14322 | -0.22631 | 477 ft | 130 kts | 78° |
| 2026-05-07 20:05 | 51.14509 | -0.21236 | 305 ft | 129 kts | 78° |
| 2026-05-07 20:05 | 51.14695 | -0.19883 | 207 ft | 106 kts | 78° |
| 2026-05-07 20:05 | 51.14813 | -0.19013 | 212 ft | 50 kts | 77° |
| 2026-05-07 20:05 | 51.14921 | -0.18542 | 204 ft | 42 kts | 52° |
| 2026-05-07 20:06 | 51.15026 | -0.18337 | 213 ft | 15 kts | 52° |
| 2026-05-07 20:06 | 51.15040 | -0.18309 | 213 ft | 0 kts | 52° |
| 2026-05-07 20:07 | 51.15040 | -0.18308 | 213 ft | 1 kts | 52° |
| 2026-05-07 20:07 | 51.15049 | -0.18290 | 213 ft | 3 kts | 52° |
| 2026-05-07 20:07 | 51.15065 | -0.18256 | 209 ft | 0 kts | 52° |
| 2026-05-07 20:08 | 51.15066 | -0.18256 | 209 ft | 0 kts | 52° |
| 2026-05-07 20:08 | 51.15066 | -0.18255 | 209 ft | 0 kts | 52° |
| 2026-05-07 20:08 | 51.15071 | -0.18244 | 212 ft | 2 kts | 52° |
| 2026-05-07 20:09 | 51.15092 | -0.18201 | 205 ft | 8 kts | 52° |
| 2026-05-07 20:09 | 51.15122 | -0.18102 | 210 ft | 12 kts | 76° |
| 2026-05-07 20:09 | 51.15143 | -0.17949 | 207 ft | 16 kts | 78° |
| 2026-05-07 20:10 | 51.15183 | -0.17659 | 207 ft | 15 kts | 78° |
| 2026-05-07 20:10 | 51.15199 | -0.17542 | 206 ft | 17 kts | 78° |
| 2026-05-07 20:10 | 51.15208 | -0.17473 | 208 ft | 4 kts | 77° |
| 2026-05-07 20:10 | 51.15218 | -0.17402 | 215 ft | 10 kts | 77° |
| 2026-05-07 20:11 | 51.15247 | -0.17352 | 210 ft | 10 kts | 20° |
| 2026-05-07 20:11 | 51.15322 | -0.17355 | 206 ft | 12 kts | 348° |
| 2026-05-07 20:11 | 51.15442 | -0.17395 | 206 ft | 14 kts | 348° |
| 2026-05-07 20:11 | 51.15510 | -0.17418 | 206 ft | 16 kts | 348° |
| 2026-05-07 20:12 | 51.15621 | -0.17459 | 211 ft | 17 kts | 346° |
| 2026-05-07 20:12 | 51.15705 | -0.17489 | 206 ft | 8 kts | 347° |
| 2026-05-07 20:12 | 51.15755 | -0.17466 | 216 ft | 8 kts | 56° |
| 2026-05-07 20:12 | 51.15780 | -0.17400 | 209 ft | 1 kts | 27° |
| 2026-05-07 20:13 | 51.15791 | -0.17402 | 207 ft | 6 kts | 345° |
| 2026-05-07 20:13 | 51.15840 | -0.17421 | 206 ft | 1 kts | 346° |
| 2026-05-07 20:13 | 51.15851 | -0.17425 | 206 ft | 0 kts | 347° |